Airport View

Enter AWOS ICAO identifier for current METAR.

ex. KFNL

KORD 080742Z 06006KT 9SM OVC017 11/09 A2972 RMK AO2 T01110089

8 Apr 2020 07:56

Phone: 773-462-0118

Other Area AWOS: KPWK - KMDW - KDPA - KLOT

TAF AMD KORD 080724Z 0807/0912 07004KT P6SM SCT015 FM080800 08004KT 4SM BR OVC015 FM081500 22008KT P6SM SCT050 FM082100 33012G18KT P6SM SCT025 OVC050 TEMPO 0821/0901 6SM -SHRA OVC030 FM090400 30014G22KT P6SM SKC